createdAt,value
2023-01-17T00:01:56.019Z,5.20
2023-01-17T00:04:41.348Z,5.43
2023-01-17T00:07:30.431Z,5.82
2023-01-17T00:09:59.676Z,4.97
2023-01-17T00:12:31.744Z,5.55
2023-01-17T00:14:59.855Z,7.20
2023-01-17T00:17:28.713Z,6.45
2023-01-17T00:20:14.974Z,7.80
2023-01-17T00:23:02.248Z,6.35
2023-01-17T00:25:58.759Z,6.45
2023-01-17T00:28:26.792Z,6.07
2023-01-17T00:30:53.964Z,6.78
2023-01-17T00:33:22.479Z,6.05
2023-01-17T00:35:49.727Z,7.47
2023-01-17T00:38:21.564Z,7.55
2023-01-17T00:40:49.248Z,9.35
2023-01-17T00:43:37.058Z,5.10
2023-01-17T00:46:22.702Z,11.55
2023-01-17T00:49:08.134Z,6.78
2023-01-17T00:51:53.930Z,7.95
2023-01-17T00:54:39.813Z,7.97
2023-01-17T00:57:26.107Z,7.40
2023-01-17T01:00:11.534Z,8.25
2023-01-17T01:02:57.373Z,8.30
2023-01-17T01:05:42.856Z,12.27
2023-01-17T01:08:42.420Z,9.63
2023-01-17T01:11:30.286Z,10.65
2023-01-17T01:14:15.935Z,7.35
2023-01-17T01:17:01.410Z,7.90
2023-01-17T01:19:47.130Z,10.30
2023-01-17T01:22:32.570Z,9.43
2023-01-17T01:25:17.874Z,7.15
2023-01-17T01:28:03.399Z,7.57
2023-01-17T01:30:48.922Z,9.13
2023-01-17T01:33:18.771Z,8.70
2023-01-17T01:35:55.564Z,8.18
2023-01-17T01:38:24.769Z,7.20
2023-01-17T01:40:54.100Z,7.55
2023-01-17T01:43:41.272Z,11.40
2023-01-17T01:46:11.307Z,8.10
2023-01-17T01:48:48.616Z,7.50
2023-01-17T01:51:21.170Z,8.38
2023-01-17T01:53:51.205Z,6.68
2023-01-17T01:56:20.153Z,8.05
2023-01-17T01:58:50.593Z,8.45
2023-01-17T02:01:18.104Z,7.60
2023-01-17T02:03:46.003Z,8.50
2023-01-17T02:06:37.199Z,9.68
2023-01-17T02:09:07.583Z,8.45
2023-01-17T02:11:37.262Z,7.55
2023-01-17T02:14:04.578Z,8.02
2023-01-17T02:16:53.522Z,10.07
2023-01-17T02:19:20.235Z,5.40
2023-01-17T02:21:52.889Z,13.70
2023-01-17T02:24:57.758Z,8.32
2023-01-17T02:27:39.071Z,7.60
2023-01-17T02:30:11.404Z,13.48
2023-01-17T02:32:53.050Z,9.73
2023-01-17T02:35:25.613Z,11.38
2023-01-17T02:37:58.842Z,12.15
2023-01-17T02:40:37.528Z,7.95
2023-01-17T02:43:09.519Z,9.25
2023-01-17T02:45:36.385Z,8.13
2023-01-17T02:48:03.987Z,12.85
2023-01-17T02:50:50.991Z,8.50
2023-01-17T02:53:48.052Z,8.30
2023-01-17T02:56:44.661Z,11.27
2023-01-17T02:59:38.494Z,8.60
2023-01-17T03:02:24.519Z,8.52
2023-01-17T03:05:20.630Z,6.97
2023-01-17T03:07:48.459Z,8.25
2023-01-17T03:10:17.966Z,10.80
2023-01-17T03:12:45.923Z,15.38
2023-01-17T03:15:14.833Z,7.93
2023-01-17T03:17:47.695Z,7.93
2023-01-17T03:20:14.672Z,6.45
2023-01-17T03:22:41.565Z,9.60
2023-01-17T03:25:08.854Z,8.45
2023-01-17T03:27:35.617Z,6.78
2023-01-17T03:30:02.539Z,7.07
2023-01-17T03:32:29.882Z,10.38
2023-01-17T03:34:56.779Z,11.90
2023-01-17T03:37:23.605Z,10.73
2023-01-17T03:39:50.409Z,9.75
2023-01-17T03:42:17.214Z,7.65
2023-01-17T03:44:43.965Z,10.25
2023-01-17T03:47:12.332Z,6.57
2023-01-17T03:49:40.169Z,11.10
2023-01-17T03:52:07.731Z,6.22
2023-01-17T03:54:34.680Z,8.38
2023-01-17T03:57:01.653Z,6.35
2023-01-17T03:59:28.436Z,8.75
2023-01-17T04:01:55.268Z,9.80
2023-01-17T04:04:22.246Z,8.13
2023-01-17T04:06:49.033Z,6.70
2023-01-17T04:09:15.939Z,10.93
2023-01-17T04:11:42.781Z,8.60
2023-01-17T04:14:09.552Z,7.78
2023-01-17T04:16:37.659Z,6.45
2023-01-17T04:19:04.532Z,7.88
2023-01-17T04:21:31.389Z,7.38
2023-01-17T04:23:58.203Z,5.80
2023-01-17T04:26:24.957Z,8.20
2023-01-17T04:28:51.817Z,9.18
2023-01-17T04:31:18.738Z,6.40
2023-01-17T04:33:45.592Z,12.07
2023-01-17T04:36:12.342Z,7.20
2023-01-17T04:38:39.177Z,8.63
2023-01-17T04:41:05.956Z,7.45
2023-01-17T04:43:32.750Z,7.90
2023-01-17T04:45:59.679Z,10.18
2023-01-17T04:48:27.325Z,7.65
2023-01-17T04:51:01.621Z,9.75
2023-01-17T04:53:28.480Z,10.73
2023-01-17T04:55:55.275Z,7.85
2023-01-17T04:58:23.362Z,6.43
2023-01-17T05:00:51.788Z,7.25
2023-01-17T05:03:19.780Z,9.02
2023-01-17T05:05:47.639Z,10.32
2023-01-17T05:08:15.313Z,9.50
2023-01-17T05:10:42.146Z,10.45
2023-01-17T05:13:09.627Z,10.98
2023-01-17T05:15:37.744Z,9.25
2023-01-17T05:18:08.564Z,6.90
2023-01-17T05:20:36.639Z,7.13
2023-01-17T05:23:03.681Z,7.97
2023-01-17T05:25:32.571Z,8.35
2023-01-17T05:28:00.447Z,6.60
2023-01-17T05:30:29.079Z,7.85
2023-01-17T05:32:57.449Z,10.93
2023-01-17T05:35:27.445Z,8.02
2023-01-17T05:37:54.768Z,6.25
2023-01-17T05:40:24.577Z,6.78
2023-01-17T05:42:53.469Z,11.68
2023-01-17T05:45:21.542Z,7.85
2023-01-17T05:47:49.959Z,10.27
2023-01-17T05:50:19.426Z,13.90
2023-01-17T05:52:51.250Z,8.75
2023-01-17T05:55:18.179Z,7.38
2023-01-17T05:57:44.965Z,11.02
2023-01-17T06:00:12.880Z,8.48
2023-01-17T06:02:39.839Z,8.90
2023-01-17T06:05:07.314Z,9.23
2023-01-17T06:07:34.396Z,11.43
2023-01-17T06:10:01.172Z,9.23
2023-01-17T06:12:28.012Z,11.25
2023-01-17T06:14:54.996Z,13.13
2023-01-17T06:17:21.760Z,7.55
2023-01-17T06:19:48.530Z,6.45
2023-01-17T06:22:15.307Z,7.72
2023-01-17T06:24:42.156Z,7.10
2023-01-17T06:27:10.550Z,7.22
2023-01-17T06:29:37.951Z,9.35
2023-01-17T06:32:05.056Z,6.80
2023-01-17T06:34:31.912Z,8.43
2023-01-17T06:36:58.906Z,6.85
2023-01-17T06:39:25.924Z,9.07
2023-01-17T06:41:52.743Z,5.35
2023-01-17T06:44:19.585Z,10.38
2023-01-17T06:46:48.183Z,7.35
2023-01-17T06:49:15.616Z,7.88
2023-01-17T06:51:43.705Z,12.20
2023-01-17T06:54:11.638Z,9.65
2023-01-17T06:56:38.451Z,7.85
2023-01-17T06:59:05.423Z,8.63
2023-01-17T07:01:32.506Z,8.30
2023-01-17T07:03:59.665Z,7.43
2023-01-17T07:06:28.836Z,8.52
2023-01-17T07:08:56.537Z,9.20
2023-01-17T07:11:23.925Z,6.70
2023-01-17T07:13:50.846Z,8.25
2023-01-17T07:16:17.642Z,7.03
2023-01-17T07:18:44.464Z,9.35
2023-01-17T07:21:15.543Z,10.60
2023-01-17T07:23:42.352Z,6.65
2023-01-17T07:26:09.203Z,6.40
2023-01-17T07:28:36.058Z,12.07
2023-01-17T07:31:08.084Z,7.65
2023-01-17T07:33:35.624Z,7.32
2023-01-17T07:36:07.522Z,9.10
2023-01-17T07:38:34.982Z,6.68
2023-01-17T07:41:02.144Z,7.20
2023-01-17T07:43:29.004Z,6.60
2023-01-17T07:45:55.848Z,7.63
2023-01-17T07:48:24.551Z,8.32
2023-01-17T07:50:56.115Z,6.30
2023-01-17T07:53:27.368Z,7.85
2023-01-17T07:55:54.598Z,8.73
2023-01-17T07:58:22.142Z,4.68
2023-01-17T08:00:49.144Z,10.40
2023-01-17T08:03:17.865Z,6.90
2023-01-17T08:05:53.933Z,6.18
2023-01-17T08:08:20.802Z,7.05
2023-01-17T08:10:47.830Z,6.40
2023-01-17T08:13:14.641Z,6.45
2023-01-17T08:15:41.606Z,5.95
2023-01-17T08:18:08.465Z,8.90
2023-01-17T08:20:35.297Z,6.93
2023-01-17T08:23:02.120Z,8.77
2023-01-17T08:25:29.065Z,7.30
2023-01-17T08:27:59.157Z,6.25
2023-01-17T08:30:26.746Z,7.00
2023-01-17T08:32:54.228Z,5.10
2023-01-17T08:35:22.090Z,5.80
2023-01-17T08:37:53.375Z,7.50
2023-01-17T08:40:20.374Z,4.30
2023-01-17T08:42:58.304Z,6.95
2023-01-17T08:45:25.420Z,7.90
2023-01-17T08:47:52.817Z,12.23
2023-01-17T08:50:22.483Z,7.00
2023-01-17T08:52:50.148Z,6.22
2023-01-17T08:55:17.867Z,7.00
2023-01-17T08:57:44.933Z,5.82
2023-01-17T09:00:12.261Z,5.72
2023-01-17T09:02:39.217Z,7.15
2023-01-17T09:05:06.899Z,6.35
2023-01-17T09:07:33.885Z,5.25
2023-01-17T09:10:00.771Z,6.53
2023-01-17T09:12:31.280Z,4.90
2023-01-17T09:14:58.148Z,5.85
2023-01-17T09:17:25.100Z,6.85
2023-01-17T09:19:52.108Z,5.43
2023-01-17T09:22:19.025Z,4.85
2023-01-17T09:24:45.907Z,7.43
2023-01-17T09:27:12.951Z,7.38
2023-01-17T09:29:39.841Z,6.80
2023-01-17T09:32:06.736Z,7.43
2023-01-17T09:34:33.757Z,6.30
2023-01-17T09:37:00.591Z,5.93
2023-01-17T09:39:27.680Z,6.57
2023-01-17T09:42:00.430Z,7.80
2023-01-17T09:44:36.844Z,6.28
2023-01-17T09:47:16.160Z,4.40
2023-01-17T09:49:45.535Z,5.95
2023-01-17T09:52:16.187Z,6.75
2023-01-17T09:54:45.372Z,4.35
2023-01-17T09:57:25.911Z,9.73
2023-01-17T10:00:09.381Z,4.68
2023-01-17T10:02:50.583Z,4.07
2023-01-17T10:05:33.363Z,8.57
2023-01-17T10:08:15.014Z,6.72
2023-01-17T10:10:43.315Z,3.92
2023-01-17T10:13:38.421Z,10.18
2023-01-17T10:16:14.809Z,8.77
2023-01-17T10:19:03.937Z,7.05
2023-01-17T10:21:55.930Z,6.38
2023-01-17T10:25:04.137Z,4.78
2023-01-17T10:28:09.989Z,5.40
2023-01-17T10:30:48.916Z,6.32
2023-01-17T10:33:20.749Z,6.93
2023-01-17T10:36:03.908Z,5.25
2023-01-17T10:38:38.762Z,7.63
2023-01-17T10:41:08.400Z,6.90
2023-01-17T10:43:50.121Z,12.43
2023-01-17T10:46:28.531Z,5.05
2023-01-17T10:48:56.451Z,6.05
2023-01-17T10:51:49.901Z,8.02
2023-01-17T10:54:51.540Z,4.88
2023-01-17T10:57:24.334Z,8.50
2023-01-17T10:59:52.180Z,8.57
2023-01-17T11:02:29.318Z,6.88
2023-01-17T11:04:57.451Z,9.43
2023-01-17T11:07:26.664Z,8.43
2023-01-17T11:09:56.051Z,6.55
2023-01-17T11:12:44.814Z,9.00
2023-01-17T11:15:11.644Z,8.00
2023-01-17T11:17:49.014Z,11.93
2023-01-17T11:20:23.655Z,9.77
2023-01-17T11:23:21.315Z,8.30
2023-01-17T11:25:58.515Z,8.82
2023-01-17T11:28:39.990Z,7.80
2023-01-17T11:31:23.547Z,13.85
2023-01-17T11:34:05.320Z,7.72
2023-01-17T11:36:33.215Z,8.82
2023-01-17T11:39:18.225Z,9.20
2023-01-17T11:41:48.518Z,15.18
2023-01-17T11:44:32.328Z,8.75
2023-01-17T11:47:14.517Z,9.93
2023-01-17T11:49:46.765Z,6.63
2023-01-17T11:52:23.420Z,9.48
2023-01-17T11:54:53.476Z,9.23
2023-01-17T11:57:28.416Z,14.65
2023-01-17T12:00:04.265Z,8.43
2023-01-17T12:02:43.209Z,10.70
2023-01-17T12:05:18.873Z,7.80
2023-01-17T12:07:53.537Z,7.22
2023-01-17T12:10:51.052Z,6.40
2023-01-17T12:13:59.615Z,10.68
2023-01-17T12:16:38.898Z,10.68
2023-01-17T12:19:33.874Z,9.35
2023-01-17T12:22:36.931Z,8.65
2023-01-17T12:25:24.788Z,9.88
2023-01-17T12:28:24.762Z,11.20
2023-01-17T12:31:01.327Z,10.35
2023-01-17T12:33:36.542Z,7.10
2023-01-17T12:36:33.105Z,15.35
2023-01-17T12:39:07.939Z,10.23
2023-01-17T12:41:43.620Z,8.25
2023-01-17T12:44:13.909Z,12.70
2023-01-17T12:46:49.137Z,17.33
2023-01-17T12:49:44.029Z,9.82
2023-01-17T12:52:40.576Z,13.95
2023-01-17T12:55:22.299Z,9.23
2023-01-17T12:57:57.206Z,7.45
2023-01-17T13:00:29.701Z,11.95
2023-01-17T13:03:09.947Z,8.90
2023-01-17T13:05:40.908Z,7.88
2023-01-17T13:08:46.484Z,10.10
2023-01-17T13:11:28.064Z,12.00
2023-01-17T13:13:57.644Z,10.65
2023-01-17T13:16:42.089Z,9.00
2023-01-17T13:19:24.406Z,10.23
2023-01-17T13:21:51.760Z,9.55
2023-01-17T13:24:41.440Z,10.50
2023-01-17T13:27:37.131Z,13.40
2023-01-17T13:30:31.007Z,11.40
2023-01-17T13:33:16.587Z,11.52
2023-01-17T13:36:11.964Z,10.10
2023-01-17T13:38:54.896Z,13.77
2023-01-17T13:41:43.003Z,15.32
2023-01-17T13:44:27.280Z,9.32
2023-01-17T13:47:18.666Z,13.02
2023-01-17T13:49:56.305Z,12.13
2023-01-17T13:52:25.856Z,10.23
2023-01-17T13:54:58.442Z,16.23
2023-01-17T13:57:30.236Z,10.60
2023-01-17T14:00:23.996Z,7.93
2023-01-17T14:02:53.319Z,8.27
2023-01-17T14:05:42.027Z,12.65
2023-01-17T14:08:18.324Z,9.65
2023-01-17T14:10:49.941Z,13.48
2023-01-17T14:13:36.070Z,11.75
2023-01-17T14:16:23.355Z,8.52
2023-01-17T14:18:50.543Z,10.70
2023-01-17T14:21:27.364Z,11.65
2023-01-17T14:24:15.886Z,9.10
2023-01-17T14:26:51.671Z,9.40
2023-01-17T14:29:49.195Z,9.80
2023-01-17T14:32:19.428Z,14.75
2023-01-17T14:34:48.897Z,11.48
2023-01-17T14:37:29.504Z,10.70
2023-01-17T14:39:56.547Z,9.15
2023-01-17T14:42:26.548Z,10.55
2023-01-17T14:45:07.744Z,14.30
2023-01-17T14:47:39.461Z,9.93
2023-01-17T14:50:24.406Z,11.35
2023-01-17T14:53:12.649Z,8.18
2023-01-17T14:55:49.181Z,12.50
2023-01-17T14:58:21.292Z,8.93
2023-01-17T15:00:50.199Z,12.30
2023-01-17T15:03:17.556Z,11.15
2023-01-17T15:05:49.181Z,10.73
2023-01-17T15:08:19.750Z,13.85
2023-01-17T15:11:00.192Z,12.23
2023-01-17T15:13:43.710Z,10.82
2023-01-17T15:16:20.461Z,12.20
2023-01-17T15:18:48.073Z,15.43
2023-01-17T15:21:19.274Z,13.52
2023-01-17T15:23:57.985Z,14.30
2023-01-17T15:26:30.995Z,13.07
2023-01-17T15:29:11.448Z,14.90
2023-01-17T15:31:50.725Z,15.73
2023-01-17T15:34:33.600Z,11.57
2023-01-17T15:37:03.841Z,12.20
2023-01-17T15:39:34.199Z,16.35
2023-01-17T15:42:05.121Z,12.82
2023-01-17T15:44:47.577Z,15.30
2023-01-17T15:47:44.935Z,11.10
2023-01-17T15:50:21.312Z,10.90
2023-01-17T15:52:53.375Z,10.93
2023-01-17T15:55:28.849Z,16.88
2023-01-17T15:57:55.889Z,16.00
2023-01-17T16:00:26.803Z,18.10
2023-01-17T16:02:58.985Z,16.50
2023-01-17T16:05:27.717Z,14.85
2023-01-17T16:08:31.174Z,13.35
2023-01-17T16:11:02.340Z,13.20
2023-01-17T16:13:31.304Z,17.60
2023-01-17T16:16:12.256Z,17.70
2023-01-17T16:18:40.382Z,17.92
2023-01-17T16:21:31.002Z,14.90
2023-01-17T16:23:59.449Z,19.15
2023-01-17T16:26:28.609Z,18.40
2023-01-17T16:28:55.396Z,16.20
2023-01-17T16:31:22.451Z,19.35
2023-01-17T16:33:49.958Z,21.85
2023-01-17T16:36:17.531Z,15.88
2023-01-17T16:38:45.342Z,20.10
2023-01-17T16:41:12.432Z,23.98
2023-01-17T16:43:39.435Z,19.58
2023-01-17T16:46:07.039Z,18.05
2023-01-17T16:48:33.999Z,18.20
2023-01-17T16:51:06.321Z,21.13
2023-01-17T16:53:33.105Z,26.08
2023-01-17T16:56:12.068Z,24.40
2023-01-17T16:58:39.292Z,24.25
2023-01-17T17:01:11.637Z,17.92
2023-01-17T17:03:38.592Z,19.42
2023-01-17T17:06:05.661Z,15.25
2023-01-17T17:08:34.783Z,18.98
2023-01-17T17:11:27.819Z,16.10
2023-01-17T17:13:54.646Z,23.23
2023-01-17T17:16:26.990Z,18.42
2023-01-17T17:19:02.918Z,17.15
2023-01-17T17:21:32.102Z,16.30
2023-01-17T17:24:00.419Z,18.77
2023-01-17T17:26:34.420Z,18.42
2023-01-17T17:29:02.202Z,25.35
2023-01-17T17:31:29.192Z,22.60
2023-01-17T17:34:00.760Z,18.48
2023-01-17T17:36:28.012Z,19.10
2023-01-17T17:38:55.968Z,18.65
2023-01-17T17:41:28.823Z,24.70
2023-01-17T17:43:56.188Z,19.90
2023-01-17T17:46:24.584Z,21.88
2023-01-17T17:48:51.635Z,19.08
2023-01-17T17:51:22.983Z,22.25
2023-01-17T17:53:50.348Z,22.17
2023-01-17T17:56:17.091Z,18.30
2023-01-17T17:58:46.069Z,19.35
2023-01-17T18:01:13.136Z,22.13
2023-01-17T18:03:40.090Z,21.27
2023-01-17T18:06:09.646Z,20.05
2023-01-17T18:08:37.379Z,23.60
2023-01-17T18:11:14.866Z,25.52
2023-01-17T18:13:42.943Z,26.60
2023-01-17T18:16:15.059Z,29.30
2023-01-17T18:18:45.248Z,29.80
2023-01-17T18:21:15.149Z,28.00
2023-01-17T18:23:44.357Z,31.20
2023-01-17T18:26:26.214Z,28.55
2023-01-17T18:28:55.150Z,26.08
2023-01-17T18:31:25.111Z,32.55
2023-01-17T18:33:53.704Z,31.83
2023-01-17T18:36:21.169Z,40.10
2023-01-17T18:38:48.438Z,26.45
2023-01-17T18:41:20.850Z,22.52
2023-01-17T18:43:48.021Z,27.48
2023-01-17T18:46:16.357Z,28.13
2023-01-17T18:48:43.551Z,25.52
2023-01-17T18:51:16.003Z,25.60
2023-01-17T18:53:44.512Z,28.33
2023-01-17T18:56:14.249Z,27.27
2023-01-17T18:58:43.176Z,24.27
2023-01-17T19:01:22.770Z,29.80
2023-01-17T19:03:51.862Z,24.70
2023-01-17T19:06:22.329Z,34.05
2023-01-17T19:08:51.719Z,25.20
2023-01-17T19:11:20.344Z,28.42
2023-01-17T19:13:48.515Z,26.35
2023-01-17T19:16:20.075Z,28.27
2023-01-17T19:18:47.553Z,25.20
2023-01-17T19:21:16.793Z,31.00
2023-01-17T19:23:43.837Z,31.40
2023-01-17T19:26:12.614Z,26.55
2023-01-17T19:28:44.908Z,29.05
2023-01-17T19:31:14.798Z,29.95
2023-01-17T19:33:43.754Z,31.27
2023-01-17T19:36:17.213Z,29.83
2023-01-17T19:38:55.208Z,32.15
2023-01-17T19:41:30.682Z,28.85
2023-01-17T19:44:03.262Z,34.85
2023-01-17T19:46:30.714Z,32.88
2023-01-17T19:48:57.935Z,42.30
2023-01-17T19:51:26.725Z,35.25
2023-01-17T19:53:54.120Z,39.13
2023-01-17T19:56:23.951Z,30.40
2023-01-17T19:58:51.027Z,38.67
2023-01-17T20:01:22.372Z,32.63
2023-01-17T20:03:50.483Z,36.58
2023-01-17T20:06:23.119Z,36.95
2023-01-17T20:08:50.066Z,30.08
2023-01-17T20:11:19.990Z,39.90
2023-01-17T20:13:54.259Z,47.47
2023-01-17T20:16:22.172Z,37.80
2023-01-17T20:18:49.925Z,36.67
2023-01-17T20:21:18.524Z,31.48
2023-01-17T20:23:47.136Z,36.72
2023-01-17T20:26:24.160Z,33.85
2023-01-17T20:28:52.344Z,34.70
2023-01-17T20:31:22.711Z,35.55
2023-01-17T20:33:54.183Z,40.78
2023-01-17T20:36:23.405Z,33.60
2023-01-17T20:38:50.470Z,35.78
2023-01-17T20:41:23.236Z,36.17
2023-01-17T20:43:52.828Z,35.95
2023-01-17T20:46:22.286Z,33.85
2023-01-17T20:48:50.911Z,38.90
2023-01-17T20:51:19.012Z,42.67
2023-01-17T20:53:50.438Z,36.47
2023-01-17T20:56:18.228Z,40.03
2023-01-17T20:58:45.405Z,41.97
2023-01-17T21:01:19.019Z,30.83
2023-01-17T21:03:48.106Z,35.75
2023-01-17T21:06:15.456Z,34.38
2023-01-17T21:08:44.221Z,36.75
2023-01-17T21:11:12.919Z,36.05
2023-01-17T21:13:40.256Z,36.92
2023-01-17T21:16:09.983Z,31.55
2023-01-17T21:18:37.644Z,36.22
2023-01-17T21:21:17.692Z,39.17
2023-01-17T21:23:45.555Z,31.30
2023-01-17T21:26:14.612Z,37.30
2023-01-17T21:28:43.322Z,32.05
2023-01-17T21:31:27.267Z,32.08
2023-01-17T21:33:59.543Z,36.88
2023-01-17T21:36:30.716Z,35.15
2023-01-17T21:38:59.060Z,30.40
2023-01-17T21:41:28.871Z,34.08
2023-01-17T21:44:00.754Z,35.85
2023-01-17T21:46:29.134Z,31.98
2023-01-17T21:48:58.002Z,42.63
2023-01-17T21:51:46.245Z,31.75
2023-01-17T21:54:13.300Z,38.63
2023-01-17T21:56:58.568Z,32.38
2023-01-17T21:59:25.395Z,48.00
2023-01-17T22:01:52.917Z,38.55
2023-01-17T22:04:20.075Z,38.22
2023-01-17T22:06:46.909Z,43.08
2023-01-17T22:09:15.173Z,41.15
2023-01-17T22:11:42.078Z,43.40
2023-01-17T22:14:08.937Z,37.60
2023-01-17T22:16:35.769Z,37.53
2023-01-17T22:19:02.587Z,41.58
2023-01-17T22:21:29.571Z,41.47
2023-01-17T22:23:58.481Z,40.85
2023-01-17T22:26:27.309Z,37.22
2023-01-17T22:28:54.681Z,51.00
2023-01-17T22:31:24.829Z,53.10
2023-01-17T22:34:03.334Z,41.88
2023-01-17T22:36:32.395Z,47.30
2023-01-17T22:38:59.367Z,44.97
2023-01-17T22:41:32.907Z,51.92
2023-01-17T22:44:02.259Z,42.05
2023-01-17T22:46:31.455Z,47.58
2023-01-17T22:48:58.979Z,45.50
2023-01-17T22:51:28.354Z,46.65
2023-01-17T22:53:58.033Z,41.10
2023-01-17T22:56:27.545Z,38.67
2023-01-17T22:58:54.636Z,48.25
2023-01-17T23:01:23.874Z,40.20
2023-01-17T23:03:53.721Z,40.38
2023-01-17T23:06:28.058Z,43.75
2023-01-17T23:08:57.999Z,42.33
2023-01-17T23:11:43.361Z,42.28
2023-01-17T23:14:15.210Z,44.63
2023-01-17T23:17:08.884Z,41.20
2023-01-17T23:19:41.465Z,43.95
2023-01-17T23:22:16.851Z,47.38
2023-01-17T23:24:55.271Z,46.13
2023-01-17T23:27:53.651Z,46.92
2023-01-17T23:30:23.538Z,42.65
2023-01-17T23:32:55.019Z,41.08
2023-01-17T23:35:26.448Z,47.80
2023-01-17T23:38:12.365Z,46.08
2023-01-17T23:40:40.214Z,35.97
2023-01-17T23:43:23.913Z,41.15
2023-01-17T23:45:54.895Z,46.85
2023-01-17T23:48:25.403Z,38.80
2023-01-17T23:50:57.744Z,35.17
2023-01-17T23:53:24.582Z,39.90
2023-01-17T23:55:54.223Z,43.90
2023-01-17T23:58:26.097Z,43.70
